sensor_id;sensor_type;location;lat;lon;timestamp;pressure;altitude;pressure_sealevel;temperature;humidity
32486;BME280;18935;52.236;21.134;2022-09-09T00:02:01;99335.13;;;6.43;100.00
32486;BME280;18935;52.236;21.134;2022-09-09T00:04:41;99334.44;;;6.36;100.00
32486;BME280;18935;52.236;21.134;2022-09-09T00:07:18;99333.66;;;6.34;100.00
32486;BME280;18935;52.236;21.134;2022-09-09T00:10:05;99326.13;;;6.26;100.00
32486;BME280;18935;52.236;21.134;2022-09-09T00:15:32;99328.69;;;6.26;100.00
32486;BME280;18935;52.236;21.134;2022-09-09T00:18:17;99322.72;;;6.24;100.00
32486;BME280;18935;52.236;21.134;2022-09-09T00:23:28;99317.56;;;6.24;100.00
32486;BME280;18935;52.236;21.134;2022-09-09T00:26:12;99315.13;;;6.18;100.00
32486;BME280;18935;52.236;21.134;2022-09-09T00:31:27;99320.31;;;6.18;100.00
32486;BME280;18935;52.236;21.134;2022-09-09T00:33:53;99314.38;;;6.15;100.00
32486;BME280;18935;52.236;21.134;2022-09-09T00:36:23;99305.84;;;6.11;100.00
32486;BME280;18935;52.236;21.134;2022-09-09T00:38:57;99306.63;;;6.15;100.00
32486;BME280;18935;52.236;21.134;2022-09-09T00:44:27;99305.78;;;6.14;100.00
32486;BME280;18935;52.236;21.134;2022-09-09T00:50:00;99299.06;;;6.07;100.00
32486;BME280;18935;52.236;21.134;2022-09-09T00:57:57;99300.03;;;6.03;100.00
32486;BME280;18935;52.236;21.134;2022-09-09T01:00:27;99304.28;;;6.05;100.00
32486;BME280;18935;52.236;21.134;2022-09-09T01:03:18;99293.69;;;6.15;100.00
32486;BME280;18935;52.236;21.134;2022-09-09T01:11:41;99300.59;;;6.14;100.00
32486;BME280;18935;52.236;21.134;2022-09-09T01:17:17;99301.63;;;6.08;100.00
32486;BME280;18935;52.236;21.134;2022-09-09T01:19:55;99304.09;;;6.11;100.00
32486;BME280;18935;52.236;21.134;2022-09-09T01:22:49;99303.88;;;6.19;100.00
32486;BME280;18935;52.236;21.134;2022-09-09T01:26:07;99298.97;;;6.10;100.00
32486;BME280;18935;52.236;21.134;2022-09-09T01:28:36;99297.97;;;6.16;100.00
32486;BME280;18935;52.236;21.134;2022-09-09T01:31:06;99295.31;;;6.17;100.00
32486;BME280;18935;52.236;21.134;2022-09-09T01:33:33;99292.84;;;6.12;100.00
32486;BME280;18935;52.236;21.134;2022-09-09T01:36:17;99290.31;;;6.11;100.00
32486;BME280;18935;52.236;21.134;2022-09-09T01:38:45;99293.00;;;6.08;100.00
32486;BME280;18935;52.236;21.134;2022-09-09T01:41:10;99284.47;;;6.04;100.00
32486;BME280;18935;52.236;21.134;2022-09-09T01:43:36;99286.81;;;6.12;100.00
32486;BME280;18935;52.236;21.134;2022-09-09T01:46:02;99285.13;;;6.11;100.00
32486;BME280;18935;52.236;21.134;2022-09-09T01:48:28;99285.13;;;6.11;100.00
32486;BME280;18935;52.236;21.134;2022-09-09T01:50:54;99294.53;;;6.15;100.00
32486;BME280;18935;52.236;21.134;2022-09-09T01:53:20;99295.38;;;6.16;100.00
32486;BME280;18935;52.236;21.134;2022-09-09T01:58:49;99281.66;;;6.12;100.00
32486;BME280;18935;52.236;21.134;2022-09-09T02:01:43;99284.25;;;6.12;100.00
32486;BME280;18935;52.236;21.134;2022-09-09T02:04:25;99286.03;;;6.10;100.00
32486;BME280;18935;52.236;21.134;2022-09-09T02:06:55;99291.38;;;6.04;100.00
32486;BME280;18935;52.236;21.134;2022-09-09T02:09:23;99292.91;;;6.11;100.00
32486;BME280;18935;52.236;21.134;2022-09-09T02:11:55;99293.91;;;6.07;100.00
32486;BME280;18935;52.236;21.134;2022-09-09T02:14:29;99291.09;;;6.15;100.00
32486;BME280;18935;52.236;21.134;2022-09-09T02:17:08;99291.00;;;6.18;100.00
32486;BME280;18935;52.236;21.134;2022-09-09T02:19:39;99284.22;;;6.13;100.00
32486;BME280;18935;52.236;21.134;2022-09-09T02:22:07;99278.94;;;6.17;100.00
32486;BME280;18935;52.236;21.134;2022-09-09T02:24:34;99285.94;;;6.13;100.00
32486;BME280;18935;52.236;21.134;2022-09-09T02:27:03;99284.84;;;6.20;100.00
32486;BME280;18935;52.236;21.134;2022-09-09T02:29:33;99286.53;;;6.23;100.00
32486;BME280;18935;52.236;21.134;2022-09-09T02:32:03;99279.50;;;6.26;100.00
32486;BME280;18935;52.236;21.134;2022-09-09T02:34:30;99284.00;;;6.20;100.00
32486;BME280;18935;52.236;21.134;2022-09-09T02:36:59;99282.25;;;6.22;100.00
32486;BME280;18935;52.236;21.134;2022-09-09T02:39:26;99287.66;;;6.14;100.00
32486;BME280;18935;52.236;21.134;2022-09-09T02:41:51;99289.16;;;6.21;100.00
32486;BME280;18935;52.236;21.134;2022-09-09T02:44:17;99284.84;;;6.22;100.00
32486;BME280;18935;52.236;21.134;2022-09-09T02:52:51;99283.94;;;6.23;100.00
32486;BME280;18935;52.236;21.134;2022-09-09T02:55:40;99288.03;;;6.30;100.00
32486;BME280;18935;52.236;21.134;2022-09-09T02:58:09;99278.75;;;6.23;100.00
32486;BME280;18935;52.236;21.134;2022-09-09T03:00:37;99283.00;;;6.25;100.00
32486;BME280;18935;52.236;21.134;2022-09-09T03:03:05;99288.00;;;6.31;100.00
32486;BME280;18935;52.236;21.134;2022-09-09T03:05:31;99294.91;;;6.31;100.00
32486;BME280;18935;52.236;21.134;2022-09-09T03:07:57;99295.09;;;6.25;100.00
32486;BME280;18935;52.236;21.134;2022-09-09T03:10:22;99290.75;;;6.25;100.00
32486;BME280;18935;52.236;21.134;2022-09-09T03:12:48;99289.97;;;6.23;100.00
32486;BME280;18935;52.236;21.134;2022-09-09T03:15:15;99294.03;;;6.32;100.00
32486;BME280;18935;52.236;21.134;2022-09-09T03:17:40;99291.47;;;6.30;100.00
32486;BME280;18935;52.236;21.134;2022-09-09T03:20:06;99292.16;;;6.35;100.00
32486;BME280;18935;52.236;21.134;2022-09-09T03:22:33;99286.97;;;6.37;100.00
32486;BME280;18935;52.236;21.134;2022-09-09T03:24:58;99279.16;;;6.38;100.00
32486;BME280;18935;52.236;21.134;2022-09-09T03:27:24;99282.72;;;6.34;100.00
32486;BME280;18935;52.236;21.134;2022-09-09T03:29:49;99282.66;;;6.36;100.00
32486;BME280;18935;52.236;21.134;2022-09-09T03:32:18;99281.03;;;6.33;100.00
32486;BME280;18935;52.236;21.134;2022-09-09T03:34:44;99279.16;;;6.38;100.00
32486;BME280;18935;52.236;21.134;2022-09-09T03:37:14;99273.88;;;6.41;100.00
32486;BME280;18935;52.236;21.134;2022-09-09T03:39:40;99267.09;;;6.37;100.00
32486;BME280;18935;52.236;21.134;2022-09-09T03:42:05;99263.72;;;6.34;100.00
32486;BME280;18935;52.236;21.134;2022-09-09T03:44:30;99264.75;;;6.28;100.00
32486;BME280;18935;52.236;21.134;2022-09-09T03:46:56;99269.06;;;6.29;100.00
32486;BME280;18935;52.236;21.134;2022-09-09T03:49:21;99266.44;;;6.31;100.00
32486;BME280;18935;52.236;21.134;2022-09-09T03:51:47;99267.28;;;6.31;100.00
32486;BME280;18935;52.236;21.134;2022-09-09T03:54:13;99277.53;;;6.34;100.00
32486;BME280;18935;52.236;21.134;2022-09-09T03:56:38;99274.94;;;6.34;100.00
32486;BME280;18935;52.236;21.134;2022-09-09T03:59:04;99279.03;;;6.41;100.00
32486;BME280;18935;52.236;21.134;2022-09-09T04:01:30;99281.72;;;6.38;100.00
32486;BME280;18935;52.236;21.134;2022-09-09T04:03:55;99277.06;;;6.50;100.00
32486;BME280;18935;52.236;21.134;2022-09-09T04:06:23;99277.34;;;6.40;100.00
32486;BME280;18935;52.236;21.134;2022-09-09T04:08:49;99287.59;;;6.44;100.00
32486;BME280;18935;52.236;21.134;2022-09-09T04:11:15;99283.19;;;6.47;100.00
32486;BME280;18935;52.236;21.134;2022-09-09T04:13:41;99276.78;;;6.59;100.00
32486;BME280;18935;52.236;21.134;2022-09-09T04:16:07;99277.06;;;6.50;100.00
32486;BME280;18935;52.236;21.134;2022-09-09T04:18:34;99276.41;;;6.43;100.00
32486;BME280;18935;52.236;21.134;2022-09-09T04:20:59;99279.66;;;6.50;100.00
32486;BME280;18935;52.236;21.134;2022-09-09T04:23:27;99282.34;;;6.47;100.00
32486;BME280;18935;52.236;21.134;2022-09-09T04:25:55;99278.72;;;6.52;100.00
32486;BME280;18935;52.236;21.134;2022-09-09T04:28:23;99282.06;;;6.56;100.00
32486;BME280;18935;52.236;21.134;2022-09-09T04:30:49;99287.25;;;6.56;100.00
32486;BME280;18935;52.236;21.134;2022-09-09T04:33:15;99284.94;;;6.47;100.00
32486;BME280;18935;52.236;21.134;2022-09-09T04:35:47;99275.19;;;6.55;100.00
32486;BME280;18935;52.236;21.134;2022-09-09T04:38:13;99278.56;;;6.57;100.00
32486;BME280;18935;52.236;21.134;2022-09-09T04:40:38;99276.97;;;6.53;100.00
32486;BME280;18935;52.236;21.134;2022-09-09T04:43:08;99270.84;;;6.55;100.00
32486;BME280;18935;52.236;21.134;2022-09-09T04:45:34;99275.19;;;6.55;100.00
32486;BME280;18935;52.236;21.134;2022-09-09T04:47:59;99282.97;;;6.55;100.00
32486;BME280;18935;52.236;21.134;2022-09-09T04:50:25;99276.94;;;6.54;100.00
32486;BME280;18935;52.236;21.134;2022-09-09T04:52:50;99279.28;;;6.62;100.00
32486;BME280;18935;52.236;21.134;2022-09-09T04:55:15;99283.56;;;6.63;100.00
32486;BME280;18935;52.236;21.134;2022-09-09T04:57:41;99289.47;;;6.66;100.00
32486;BME280;18935;52.236;21.134;2022-09-09T05:00:07;99292.13;;;6.65;100.00
32486;BME280;18935;52.236;21.134;2022-09-09T05:02:32;99295.50;;;6.67;100.00
32486;BME280;18935;52.236;21.134;2022-09-09T05:04:59;99284.53;;;6.60;100.00
32486;BME280;18935;52.236;21.134;2022-09-09T05:07:30;99291.22;;;6.66;100.00
32486;BME280;18935;52.236;21.134;2022-09-09T05:09:56;99283.44;;;6.66;100.00
32486;BME280;18935;52.236;21.134;2022-09-09T05:12:22;99299.00;;;6.66;100.00
32486;BME280;18935;52.236;21.134;2022-09-09T05:14:48;99298.06;;;6.68;100.00
32486;BME280;18935;52.236;21.134;2022-09-09T05:17:13;99295.50;;;6.68;100.00
32486;BME280;18935;52.236;21.134;2022-09-09T05:19:40;99296.22;;;6.72;100.00
32486;BME280;18935;52.236;21.134;2022-09-09T05:22:05;99303.81;;;6.78;100.00
32486;BME280;18935;52.236;21.134;2022-09-09T05:24:30;99295.91;;;6.83;100.00
32486;BME280;18935;52.236;21.134;2022-09-09T05:26:58;99300.31;;;6.79;100.00
32486;BME280;18935;52.236;21.134;2022-09-09T05:29:25;99290.72;;;6.83;100.00
32486;BME280;18935;52.236;21.134;2022-09-09T05:31:51;99306.28;;;6.83;100.00
32486;BME280;18935;52.236;21.134;2022-09-09T05:34:16;99305.69;;;6.73;100.00
32486;BME280;18935;52.236;21.134;2022-09-09T05:36:42;99304.72;;;6.77;100.00
32486;BME280;18935;52.236;21.134;2022-09-09T05:39:07;99311.41;;;6.84;100.00
32486;BME280;18935;52.236;21.134;2022-09-09T05:41:32;99313.88;;;6.87;100.00
32486;BME280;18935;52.236;21.134;2022-09-09T05:44:04;99307.91;;;6.85;100.00
32486;BME280;18935;52.236;21.134;2022-09-09T05:46:30;99310.31;;;6.91;100.00
32486;BME280;18935;52.236;21.134;2022-09-09T05:48:56;99310.69;;;6.79;100.00
32486;BME280;18935;52.236;21.134;2022-09-09T05:51:26;99307.19;;;6.80;100.00
32486;BME280;18935;52.236;21.134;2022-09-09T05:53:52;99307.75;;;6.90;100.00
32486;BME280;18935;52.236;21.134;2022-09-09T05:56:19;99307.72;;;6.91;100.00
32486;BME280;18935;52.236;21.134;2022-09-09T05:58:47;99307.97;;;6.84;100.00
32486;BME280;18935;52.236;21.134;2022-09-09T06:01:28;99310.09;;;6.97;100.00
32486;BME280;18935;52.236;21.134;2022-09-09T06:03:53;99301.72;;;6.89;100.00
32486;BME280;18935;52.236;21.134;2022-09-09T06:06:21;99312.00;;;6.92;100.00
32486;BME280;18935;52.236;21.134;2022-09-09T06:08:50;99312.94;;;6.90;100.00
32486;BME280;18935;52.236;21.134;2022-09-09T06:11:17;99319.91;;;6.88;100.00
32486;BME280;18935;52.236;21.134;2022-09-09T06:13:43;99319.06;;;6.87;100.00
32486;BME280;18935;52.236;21.134;2022-09-09T06:16:13;99320.63;;;6.93;100.00
32486;BME280;18935;52.236;21.134;2022-09-09T06:18:40;99317.38;;;6.86;100.00
32486;BME280;18935;52.236;21.134;2022-09-09T06:21:10;99322.38;;;6.92;100.00
32486;BME280;18935;52.236;21.134;2022-09-09T06:23:42;99319.97;;;6.86;100.00
32486;BME280;18935;52.236;21.134;2022-09-09T06:26:13;99318.09;;;6.90;100.00
32486;BME280;18935;52.236;21.134;2022-09-09T06:28:39;99325.00;;;6.91;100.00
32486;BME280;18935;52.236;21.134;2022-09-09T06:31:10;99327.44;;;6.95;100.00
32486;BME280;18935;52.236;21.134;2022-09-09T06:33:38;99328.41;;;6.93;100.00
32486;BME280;18935;52.236;21.134;2022-09-09T06:36:10;99333.66;;;6.90;100.00
32486;BME280;18935;52.236;21.134;2022-09-09T06:38:36;99331.69;;;6.98;100.00
32486;BME280;18935;52.236;21.134;2022-09-09T06:41:05;99329.19;;;6.95;100.00
32486;BME280;18935;52.236;21.134;2022-09-09T06:43:36;99329.91;;;7.00;100.00
32486;BME280;18935;52.236;21.134;2022-09-09T06:46:16;99333.53;;;6.94;100.00
32486;BME280;18935;52.236;21.134;2022-09-09T06:48:43;99332.56;;;6.99;100.00
32486;BME280;18935;52.236;21.134;2022-09-09T06:53:42;99342.50;;;7.11;100.00
32486;BME280;18935;52.236;21.134;2022-09-09T06:56:19;99342.50;;;7.11;100.00
32486;BME280;18935;52.236;21.134;2022-09-09T06:58:46;99341.59;;;7.13;100.00
32486;BME280;18935;52.236;21.134;2022-09-09T07:01:25;99339.84;;;7.12;100.00
32486;BME280;18935;52.236;21.134;2022-09-09T07:03:55;99344.19;;;7.12;100.00
32486;BME280;18935;52.236;21.134;2022-09-09T07:06:23;99338.81;;;7.18;100.00
32486;BME280;18935;52.236;21.134;2022-09-09T07:09:00;99346.72;;;7.15;100.00
32486;BME280;18935;52.236;21.134;2022-09-09T07:11:31;99340.19;;;7.28;100.00
32486;BME280;18935;52.236;21.134;2022-09-09T07:13:57;99338.75;;;7.21;100.00
32486;BME280;18935;52.236;21.134;2022-09-09T07:16:25;99350.75;;;7.23;100.00
32486;BME280;18935;52.236;21.134;2022-09-09T07:18:51;99348.81;;;7.30;100.00
32486;BME280;18935;52.236;21.134;2022-09-09T07:21:18;99352.50;;;7.23;100.00
32486;BME280;18935;52.236;21.134;2022-09-09T07:23:44;99358.16;;;7.34;100.00
32486;BME280;18935;52.236;21.134;2022-09-09T07:26:15;99366.75;;;7.36;100.00
32486;BME280;18935;52.236;21.134;2022-09-09T07:28:41;99360.75;;;7.34;100.00
32486;BME280;18935;52.236;21.134;2022-09-09T07:31:13;99370.53;;;7.26;100.00
32486;BME280;18935;52.236;21.134;2022-09-09T07:33:41;99364.56;;;7.24;100.00
32486;BME280;18935;52.236;21.134;2022-09-09T07:36:29;99372.81;;;7.35;100.00
32486;BME280;18935;52.236;21.134;2022-09-09T07:38:56;99371.31;;;7.30;100.00
32486;BME280;18935;52.236;21.134;2022-09-09T07:41:24;99368.72;;;7.30;100.00
32486;BME280;18935;52.236;21.134;2022-09-09T07:43:50;99371.19;;;7.33;100.00
32486;BME280;18935;52.236;21.134;2022-09-09T07:46:18;99374.53;;;7.36;100.00
32486;BME280;18935;52.236;21.134;2022-09-09T07:48:52;99374.53;;;7.36;100.00
32486;BME280;18935;52.236;21.134;2022-09-09T07:51:38;99372.75;;;7.38;100.00
32486;BME280;18935;52.236;21.134;2022-09-09T07:54:06;99380.59;;;7.35;100.00
32486;BME280;18935;52.236;21.134;2022-09-09T07:56:34;99377.94;;;7.38;100.00
32486;BME280;18935;52.236;21.134;2022-09-09T07:59:04;99381.97;;;7.47;100.00
32486;BME280;18935;52.236;21.134;2022-09-09T08:01:35;99389.69;;;7.48;100.00
32486;BME280;18935;52.236;21.134;2022-09-09T08:04:05;99385.00;;;7.60;100.00
32486;BME280;18935;52.236;21.134;2022-09-09T08:06:38;99390.44;;;7.52;100.00
32486;BME280;18935;52.236;21.134;2022-09-09T08:09:05;99391.13;;;7.57;100.00
32486;BME280;18935;52.236;21.134;2022-09-09T08:11:35;99388.34;;;7.63;100.00
32486;BME280;18935;52.236;21.134;2022-09-09T08:14:06;99384.63;;;7.70;100.00
32486;BME280;18935;52.236;21.134;2022-09-09T08:16:35;99390.78;;;7.68;100.00
32486;BME280;18935;52.236;21.134;2022-09-09T08:19:02;99401.38;;;7.62;100.00
32486;BME280;18935;52.236;21.134;2022-09-09T08:21:31;99396.13;;;7.63;100.00
32486;BME280;18935;52.236;21.134;2022-09-09T08:23:58;99399.56;;;7.64;100.00
32486;BME280;18935;52.236;21.134;2022-09-09T08:26:38;99401.25;;;7.65;100.00
32486;BME280;18935;52.236;21.134;2022-09-09T08:29:05;99405.66;;;7.63;100.00
32486;BME280;18935;52.236;21.134;2022-09-09T08:31:35;99404.44;;;7.73;100.00
32486;BME280;18935;52.236;21.134;2022-09-09T08:34:02;99405.50;;;7.67;100.00
32486;BME280;18935;52.236;21.134;2022-09-09T08:36:31;99407.09;;;7.71;100.00
32486;BME280;18935;52.236;21.134;2022-09-09T08:39:01;99406.28;;;7.69;100.00
32486;BME280;18935;52.236;21.134;2022-09-09T08:41:55;99413.03;;;7.75;100.00
32486;BME280;18935;52.236;21.134;2022-09-09T08:44:30;99413.13;;;7.72;100.00
32486;BME280;18935;52.236;21.134;2022-09-09T08:50:05;99417.91;;;7.84;100.00
32486;BME280;18935;52.236;21.134;2022-09-09T08:55:39;99425.00;;;7.79;100.00
32486;BME280;18935;52.236;21.134;2022-09-09T08:58:13;99416.47;;;7.75;100.00
32486;BME280;18935;52.236;21.134;2022-09-09T09:00:51;99416.50;;;7.74;100.00
32486;BME280;18935;52.236;21.134;2022-09-09T09:03:54;99419.91;;;7.76;100.00
32486;BME280;18935;52.236;21.134;2022-09-09T09:11:59;99417.47;;;7.96;100.00
32486;BME280;18935;52.236;21.134;2022-09-09T09:14:34;99420.72;;;8.03;100.00
32486;BME280;18935;52.236;21.134;2022-09-09T09:17:04;99428.03;;;7.92;100.00
32486;BME280;18935;52.236;21.134;2022-09-09T09:19:33;99435.56;;;7.99;100.00
32486;BME280;18935;52.236;21.134;2022-09-09T09:22:06;99435.56;;;7.99;100.00
32486;BME280;18935;52.236;21.134;2022-09-09T09:24:52;99429.34;;;8.03;100.00
32486;BME280;18935;52.236;21.134;2022-09-09T09:27:46;99437.13;;;8.03;100.00
32486;BME280;18935;52.236;21.134;2022-09-09T09:30:22;99434.44;;;8.06;100.00
32486;BME280;18935;52.236;21.134;2022-09-09T09:35:42;99449.28;;;8.03;100.00
32486;BME280;18935;52.236;21.134;2022-09-09T09:38:23;99444.28;;;7.97;100.00
32486;BME280;18935;52.236;21.134;2022-09-09T09:40:53;99439.91;;;7.99;100.00
32486;BME280;18935;52.236;21.134;2022-09-09T09:43:33;99440.38;;;8.10;100.00
32486;BME280;18935;52.236;21.134;2022-09-09T09:45:59;99440.50;;;8.07;100.00
32486;BME280;18935;52.236;21.134;2022-09-09T09:48:28;99448.09;;;8.12;100.00
32486;BME280;18935;52.236;21.134;2022-09-09T09:51:07;99449.06;;;8.09;100.00
32486;BME280;18935;52.236;21.134;2022-09-09T09:53:36;99444.50;;;8.16;100.00
32486;BME280;18935;52.236;21.134;2022-09-09T09:56:08;99444.94;;;8.03;100.00
32486;BME280;18935;52.236;21.134;2022-09-09T10:01:04;99442.38;;;8.02;100.00
32486;BME280;18935;52.236;21.134;2022-09-09T10:03:35;99440.28;;;8.13;100.00
32486;BME280;18935;52.236;21.134;2022-09-09T10:06:05;99447.47;;;8.30;100.00
32486;BME280;18935;52.236;21.134;2022-09-09T10:08:43;99450.84;;;8.32;100.00
32486;BME280;18935;52.236;21.134;2022-09-09T10:12:05;99436.25;;;8.28;100.00
32486;BME280;18935;52.236;21.134;2022-09-09T10:20:54;99450.84;;;8.32;100.00
32486;BME280;18935;52.236;21.134;2022-09-09T10:23:37;99460.28;;;8.34;100.00
32486;BME280;18935;52.236;21.134;2022-09-09T10:26:32;99462.03;;;8.34;100.00
32486;BME280;18935;52.236;21.134;2022-09-09T10:36:51;99460.88;;;8.44;100.00
32486;BME280;18935;52.236;21.134;2022-09-09T10:39:33;99467.53;;;8.51;100.00
32486;BME280;18935;52.236;21.134;2022-09-09T10:42:14;99476.13;;;8.53;100.00
32486;BME280;18935;52.236;21.134;2022-09-09T10:44:56;99484.56;;;8.58;100.00
32486;BME280;18935;52.236;21.134;2022-09-09T10:53:35;99493.97;;;8.62;100.00
32486;BME280;18935;52.236;21.134;2022-09-09T10:56:09;99502.41;;;8.69;100.00
32486;BME280;18935;52.236;21.134;2022-09-09T10:58:50;99505.97;;;8.67;100.00
32486;BME280;18935;52.236;21.134;2022-09-09T11:01:22;99510.47;;;8.61;100.00
32486;BME280;18935;52.236;21.134;2022-09-09T11:03:55;99514.06;;;8.57;100.00
32486;BME280;18935;52.236;21.134;2022-09-09T11:06:31;99509.91;;;8.53;100.00
32486;BME280;18935;52.236;21.134;2022-09-09T11:08:59;99514.50;;;8.70;100.00
32486;BME280;18935;52.236;21.134;2022-09-09T11:11:32;99513.78;;;8.67;100.00
32486;BME280;18935;52.236;21.134;2022-09-09T11:14:09;99514.72;;;8.64;100.00
32486;BME280;18935;52.236;21.134;2022-09-09T11:16:50;99515.78;;;8.58;100.00
32486;BME280;18935;52.236;21.134;2022-09-09T11:19:39;99523.47;;;8.61;100.00
32486;BME280;18935;52.236;21.134;2022-09-09T11:27:27;99515.69;;;8.61;100.00
32486;BME280;18935;52.236;21.134;2022-09-09T11:38:26;99525.88;;;8.68;100.00
32486;BME280;18935;52.236;21.134;2022-09-09T11:41:04;99529.31;;;8.68;100.00
32486;BME280;18935;52.236;21.134;2022-09-09T11:46:04;99536.13;;;8.71;100.00
32486;BME280;18935;52.236;21.134;2022-09-09T11:48:45;99533.31;;;8.77;100.00
32486;BME280;18935;52.236;21.134;2022-09-09T11:51:27;99525.63;;;8.74;100.00
32486;BME280;18935;52.236;21.134;2022-09-09T11:53:58;99523.72;;;8.79;100.00
32486;BME280;18935;52.236;21.134;2022-09-09T12:06:43;99513.81;;;8.88;100.00
32486;BME280;18935;52.236;21.134;2022-09-09T12:09:45;99524.28;;;8.87;100.00
32486;BME280;18935;52.236;21.134;2022-09-09T12:14:44;99527.63;;;8.90;100.00
32486;BME280;18935;52.236;21.134;2022-09-09T12:19:46;99531.69;;;8.74;100.00
32486;BME280;18935;52.236;21.134;2022-09-09T12:24:59;99538.63;;;8.74;100.00
32486;BME280;18935;52.236;21.134;2022-09-09T12:30:40;99538.16;;;8.62;100.00
32486;BME280;18935;52.236;21.134;2022-09-09T12:33:16;99537.31;;;8.62;100.00
32486;BME280;18935;52.236;21.134;2022-09-09T12:35:43;99535.56;;;8.62;100.00
32486;BME280;18935;52.236;21.134;2022-09-09T12:38:31;99544.06;;;8.68;100.00
32486;BME280;18935;52.236;21.134;2022-09-09T12:40:58;99534.13;;;8.79;100.00
32486;BME280;18935;52.236;21.134;2022-09-09T12:43:25;99539.31;;;8.79;100.00
32486;BME280;18935;52.236;21.134;2022-09-09T12:45:53;99535.22;;;8.72;100.00
32486;BME280;18935;52.236;21.134;2022-09-09T12:48:36;99538.88;;;8.68;100.00
32486;BME280;18935;52.236;21.134;2022-09-09T12:51:03;99532.97;;;8.62;100.00
32486;BME280;18935;52.236;21.134;2022-09-09T12:53:35;99527.66;;;8.66;100.00
32486;BME280;18935;52.236;21.134;2022-09-09T12:56:07;99523.94;;;8.73;100.00
32486;BME280;18935;52.236;21.134;2022-09-09T12:58:33;99521.44;;;8.70;100.00
32486;BME280;18935;52.236;21.134;2022-09-09T13:01:00;99522.94;;;8.77;100.00
32486;BME280;18935;52.236;21.134;2022-09-09T13:03:27;99525.88;;;8.68;100.00
32486;BME280;18935;52.236;21.134;2022-09-09T13:05:53;99525.34;;;8.81;100.00
32486;BME280;18935;52.236;21.134;2022-09-09T13:08:23;99520.53;;;8.71;100.00
32486;BME280;18935;52.236;21.134;2022-09-09T13:10:56;99521.91;;;8.81;100.00
32486;BME280;18935;52.236;21.134;2022-09-09T13:13:32;99526.53;;;8.73;100.00
32486;BME280;18935;52.236;21.134;2022-09-09T13:16:00;99531.56;;;8.77;100.00
32486;BME280;18935;52.236;21.134;2022-09-09T13:18:29;99526.38;;;8.77;100.00
32486;BME280;18935;52.236;21.134;2022-09-09T13:20:57;99522.09;;;8.76;100.00
32486;BME280;18935;52.236;21.134;2022-09-09T13:23:29;99524.41;;;8.84;100.00
32486;BME280;18935;52.236;21.134;2022-09-09T13:25:58;99510.34;;;8.89;100.00
32486;BME280;18935;52.236;21.134;2022-09-09T13:28:26;99514.66;;;8.89;100.00
32486;BME280;18935;52.236;21.134;2022-09-09T13:31:03;99512.25;;;8.84;100.00
32486;BME280;18935;52.236;21.134;2022-09-09T13:33:39;99516.38;;;8.90;100.00
32486;BME280;18935;52.236;21.134;2022-09-09T13:36:07;99507.66;;;8.91;100.00
32486;BME280;18935;52.236;21.134;2022-09-09T13:38:37;99508.81;;;8.84;100.00
32486;BME280;18935;52.236;21.134;2022-09-09T13:41:08;99505.91;;;8.91;100.00
32486;BME280;18935;52.236;21.134;2022-09-09T13:43:38;99503.97;;;8.97;100.00
32486;BME280;18935;52.236;21.134;2022-09-09T13:48:55;99510.94;;;8.96;100.00
32486;BME280;18935;52.236;21.134;2022-09-09T13:51:29;99517.88;;;8.96;100.00
32486;BME280;18935;52.236;21.134;2022-09-09T13:53:55;99506.91;;;8.87;100.00
32486;BME280;18935;52.236;21.134;2022-09-09T13:56:20;99509.47;;;8.89;100.00
32486;BME280;18935;52.236;21.134;2022-09-09T13:58:46;99518.91;;;8.91;100.00
32486;BME280;18935;52.236;21.134;2022-09-09T14:01:11;99513.88;;;8.87;100.00
32486;BME280;18935;52.236;21.134;2022-09-09T14:03:37;99521.75;;;8.85;100.00
32486;BME280;18935;52.236;21.134;2022-09-09T14:06:02;99531.56;;;8.77;100.00
32486;BME280;18935;52.236;21.134;2022-09-09T14:08:28;99533.47;;;8.72;100.00
32486;BME280;18935;52.236;21.134;2022-09-09T14:11:02;99526.31;;;8.79;100.00
32486;BME280;18935;52.236;21.134;2022-09-09T14:13:27;99530.72;;;8.77;100.00
32486;BME280;18935;52.236;21.134;2022-09-09T14:15:52;99534.22;;;8.76;100.00
32486;BME280;18935;52.236;21.134;2022-09-09T14:18:18;99533.38;;;8.75;100.00
32486;BME280;18935;52.236;21.134;2022-09-09T14:20:44;99538.59;;;8.75;100.00
32486;BME280;18935;52.236;21.134;2022-09-09T14:23:11;99541.13;;;8.77;100.00
32486;BME280;18935;52.236;21.134;2022-09-09T14:25:42;99541.19;;;8.75;100.00
32486;BME280;18935;52.236;21.134;2022-09-09T14:28:12;99531.72;;;8.73;100.00
32486;BME280;18935;52.236;21.134;2022-09-09T14:30:42;99538.47;;;8.78;100.00
32486;BME280;18935;52.236;21.134;2022-09-09T14:33:13;99529.59;;;8.84;100.00
32486;BME280;18935;52.236;21.134;2022-09-09T14:35:38;99537.13;;;8.91;100.00
32486;BME280;18935;52.236;21.134;2022-09-09T14:38:07;99541.41;;;8.93;100.00
32486;BME280;18935;52.236;21.134;2022-09-09T14:40:39;99538.03;;;8.90;100.00
32486;BME280;18935;52.236;21.134;2022-09-09T14:43:04;99537.13;;;8.91;100.00
32486;BME280;18935;52.236;21.134;2022-09-09T14:45:31;99536.00;;;8.99;100.00
32486;BME280;18935;52.236;21.134;2022-09-09T14:47:56;99531.88;;;8.93;100.00
32486;BME280;18935;52.236;21.134;2022-09-09T14:50:22;99528.06;;;9.02;100.00
32486;BME280;18935;52.236;21.134;2022-09-09T14:52:48;99530.44;;;9.08;100.00
32486;BME280;18935;52.236;21.134;2022-09-09T14:55:14;99533.34;;;9.00;100.00
32486;BME280;18935;52.236;21.134;2022-09-09T14:57:40;99538.75;;;8.94;100.00
32486;BME280;18935;52.236;21.134;2022-09-09T15:00:06;99530.50;;;8.83;100.00
32486;BME280;18935;52.236;21.134;2022-09-09T15:02:32;99542.47;;;8.87;100.00
32486;BME280;18935;52.236;21.134;2022-09-09T15:04:58;99541.53;;;8.89;100.00
32486;BME280;18935;52.236;21.134;2022-09-09T15:07:24;99532.88;;;8.89;100.00